sensor_id;sensor_type;location;lat;lon;timestamp;temperature;humidity
65231;DHT22;51813;40.666;16.602;2022-12-10T00:01:24;17.60;67.90
65231;DHT22;51813;40.666;16.602;2022-12-10T00:03:50;17.60;68.00
65231;DHT22;51813;40.666;16.602;2022-12-10T00:06:19;17.60;68.00
65231;DHT22;51813;40.666;16.602;2022-12-10T00:08:46;17.60;67.90
65231;DHT22;51813;40.666;16.602;2022-12-10T00:11:13;17.60;68.00
65231;DHT22;51813;40.666;16.602;2022-12-10T00:13:40;17.60;68.10
65231;DHT22;51813;40.666;16.602;2022-12-10T00:16:08;17.60;68.00
65231;DHT22;51813;40.666;16.602;2022-12-10T00:18:35;17.60;68.00
65231;DHT22;51813;40.666;16.602;2022-12-10T00:21:06;17.60;68.00
65231;DHT22;51813;40.666;16.602;2022-12-10T00:23:31;17.60;68.00
65231;DHT22;51813;40.666;16.602;2022-12-10T00:26:05;17.60;68.10
65231;DHT22;51813;40.666;16.602;2022-12-10T00:28:31;17.60;68.00
65231;DHT22;51813;40.666;16.602;2022-12-10T00:31:09;17.60;68.00
65231;DHT22;51813;40.666;16.602;2022-12-10T00:33:35;17.60;68.00
65231;DHT22;51813;40.666;16.602;2022-12-10T00:36:07;17.60;68.10
65231;DHT22;51813;40.666;16.602;2022-12-10T00:38:33;17.60;68.10
65231;DHT22;51813;40.666;16.602;2022-12-10T00:40:59;17.60;68.10
65231;DHT22;51813;40.666;16.602;2022-12-10T00:43:25;17.60;68.10
65231;DHT22;51813;40.666;16.602;2022-12-10T00:45:51;17.50;68.70
65231;DHT22;51813;40.666;16.602;2022-12-10T00:48:16;17.50;68.00
65231;DHT22;51813;40.666;16.602;2022-12-10T00:50:42;17.60;68.10
65231;DHT22;51813;40.666;16.602;2022-12-10T00:53:08;17.50;68.10
65231;DHT22;51813;40.666;16.602;2022-12-10T00:55:33;17.50;68.10
65231;DHT22;51813;40.666;16.602;2022-12-10T00:57:59;17.50;68.00
65231;DHT22;51813;40.666;16.602;2022-12-10T01:00:25;17.50;68.00
65231;DHT22;51813;40.666;16.602;2022-12-10T01:02:50;17.50;68.00
65231;DHT22;51813;40.666;16.602;2022-12-10T01:05:16;17.50;68.00
65231;DHT22;51813;40.666;16.602;2022-12-10T01:07:42;17.50;68.00
65231;DHT22;51813;40.666;16.602;2022-12-10T01:10:08;17.50;68.00
65231;DHT22;51813;40.666;16.602;2022-12-10T01:12:33;17.50;68.00
65231;DHT22;51813;40.666;16.602;2022-12-10T01:14:59;17.50;68.10
65231;DHT22;51813;40.666;16.602;2022-12-10T01:17:25;17.50;68.20
65231;DHT22;51813;40.666;16.602;2022-12-10T01:19:50;17.50;68.20
65231;DHT22;51813;40.666;16.602;2022-12-10T01:22:16;17.50;68.10
65231;DHT22;51813;40.666;16.602;2022-12-10T01:24:42;17.50;68.10
65231;DHT22;51813;40.666;16.602;2022-12-10T01:27:07;17.50;68.00
65231;DHT22;51813;40.666;16.602;2022-12-10T01:29:33;17.50;68.00
65231;DHT22;51813;40.666;16.602;2022-12-10T01:31:59;17.50;68.00
65231;DHT22;51813;40.666;16.602;2022-12-10T01:34:25;17.50;68.00
65231;DHT22;51813;40.666;16.602;2022-12-10T01:36:52;17.50;67.90
65231;DHT22;51813;40.666;16.602;2022-12-10T01:39:20;17.50;67.90
65231;DHT22;51813;40.666;16.602;2022-12-10T01:46:44;17.50;67.90
65231;DHT22;51813;40.666;16.602;2022-12-10T01:49:31;17.50;67.90
65231;DHT22;51813;40.666;16.602;2022-12-10T01:51:58;17.50;67.90
65231;DHT22;51813;40.666;16.602;2022-12-10T01:54:27;17.50;67.90
65231;DHT22;51813;40.666;16.602;2022-12-10T01:57:02;17.50;67.90
65231;DHT22;51813;40.666;16.602;2022-12-10T01:59:29;17.50;67.90
65231;DHT22;51813;40.666;16.602;2022-12-10T02:13:01;17.50;68.20
65231;DHT22;51813;40.666;16.602;2022-12-10T02:15:32;17.50;68.20
65231;DHT22;51813;40.666;16.602;2022-12-10T02:18:04;17.50;68.20
65231;DHT22;51813;40.666;16.602;2022-12-10T02:20:40;17.50;68.20
65231;DHT22;51813;40.666;16.602;2022-12-10T02:23:16;17.50;68.10
65231;DHT22;51813;40.666;16.602;2022-12-10T02:31:31;17.50;68.10
65231;DHT22;51813;40.666;16.602;2022-12-10T02:34:00;17.50;68.20
65231;DHT22;51813;40.666;16.602;2022-12-10T02:36:31;17.50;68.20
65231;DHT22;51813;40.666;16.602;2022-12-10T02:39:00;17.50;68.10
65231;DHT22;51813;40.666;16.602;2022-12-10T02:41:30;17.50;68.10
65231;DHT22;51813;40.666;16.602;2022-12-10T02:43:59;17.50;68.10
65231;DHT22;51813;40.666;16.602;2022-12-10T02:46:27;17.50;68.10
65231;DHT22;51813;40.666;16.602;2022-12-10T02:48:55;17.40;68.00
65231;DHT22;51813;40.666;16.602;2022-12-10T02:51:22;17.40;68.00
65231;DHT22;51813;40.666;16.602;2022-12-10T02:53:47;17.40;68.70
65231;DHT22;51813;40.666;16.602;2022-12-10T03:01:56;17.40;68.00
65231;DHT22;51813;40.666;16.602;2022-12-10T03:04:41;17.40;68.10
65231;DHT22;51813;40.666;16.602;2022-12-10T03:07:16;17.40;68.00
65231;DHT22;51813;40.666;16.602;2022-12-10T03:09:58;17.40;68.00
65231;DHT22;51813;40.666;16.602;2022-12-10T03:12:33;17.40;68.00
65231;DHT22;51813;40.666;16.602;2022-12-10T03:15:04;17.40;68.00
65231;DHT22;51813;40.666;16.602;2022-12-10T03:17:31;17.40;68.00
65231;DHT22;51813;40.666;16.602;2022-12-10T03:19:59;17.40;68.00
65231;DHT22;51813;40.666;16.602;2022-12-10T03:22:26;17.40;68.00
65231;DHT22;51813;40.666;16.602;2022-12-10T03:24:53;17.40;68.10
65231;DHT22;51813;40.666;16.602;2022-12-10T03:27:21;17.40;68.00
65231;DHT22;51813;40.666;16.602;2022-12-10T03:29:51;17.40;68.00
65231;DHT22;51813;40.666;16.602;2022-12-10T03:32:19;17.40;68.00
65231;DHT22;51813;40.666;16.602;2022-12-10T03:34:46;17.40;68.00
65231;DHT22;51813;40.666;16.602;2022-12-10T03:37:13;17.40;68.00
65231;DHT22;51813;40.666;16.602;2022-12-10T03:39:40;17.40;68.10
65231;DHT22;51813;40.666;16.602;2022-12-10T03:42:06;17.40;68.10
65231;DHT22;51813;40.666;16.602;2022-12-10T03:44:37;17.40;68.10
65231;DHT22;51813;40.666;16.602;2022-12-10T03:47:05;17.40;68.10
65231;DHT22;51813;40.666;16.602;2022-12-10T03:49:31;17.40;68.10
65231;DHT22;51813;40.666;16.602;2022-12-10T03:51:57;17.40;68.10
65231;DHT22;51813;40.666;16.602;2022-12-10T03:54:23;17.40;68.20
65231;DHT22;51813;40.666;16.602;2022-12-10T03:56:48;17.40;68.10
65231;DHT22;51813;40.666;16.602;2022-12-10T03:59:14;17.40;68.20
65231;DHT22;51813;40.666;16.602;2022-12-10T04:01:40;17.40;68.20
65231;DHT22;51813;40.666;16.602;2022-12-10T04:04:06;17.40;68.10
65231;DHT22;51813;40.666;16.602;2022-12-10T04:06:32;17.40;68.10
65231;DHT22;51813;40.666;16.602;2022-12-10T04:08:57;17.40;68.90
65231;DHT22;51813;40.666;16.602;2022-12-10T04:11:23;17.40;68.20
65231;DHT22;51813;40.666;16.602;2022-12-10T04:13:50;17.40;68.30
65231;DHT22;51813;40.666;16.602;2022-12-10T04:16:34;17.40;68.30
65231;DHT22;51813;40.666;16.602;2022-12-10T04:19:05;17.40;68.30
65231;DHT22;51813;40.666;16.602;2022-12-10T04:21:32;17.40;68.20
65231;DHT22;51813;40.666;16.602;2022-12-10T04:24:20;17.40;68.20
65231;DHT22;51813;40.666;16.602;2022-12-10T04:27:13;17.40;68.20
65231;DHT22;51813;40.666;16.602;2022-12-10T04:29:41;17.40;68.30
65231;DHT22;51813;40.666;16.602;2022-12-10T04:32:07;17.40;68.30
65231;DHT22;51813;40.666;16.602;2022-12-10T04:34:33;17.40;68.30
65231;DHT22;51813;40.666;16.602;2022-12-10T04:37:00;17.40;68.20
65231;DHT22;51813;40.666;16.602;2022-12-10T04:39:26;17.40;68.20
65231;DHT22;51813;40.666;16.602;2022-12-10T04:41:52;17.40;68.30
65231;DHT22;51813;40.666;16.602;2022-12-10T04:44:18;17.40;68.30
65231;DHT22;51813;40.666;16.602;2022-12-10T04:46:45;17.40;68.30
65231;DHT22;51813;40.666;16.602;2022-12-10T04:49:11;17.40;68.30
65231;DHT22;51813;40.666;16.602;2022-12-10T04:51:37;17.40;68.30
65231;DHT22;51813;40.666;16.602;2022-12-10T04:54:04;17.30;68.30
65231;DHT22;51813;40.666;16.602;2022-12-10T04:56:30;17.30;68.30
65231;DHT22;51813;40.666;16.602;2022-12-10T04:58:56;17.30;68.90
65231;DHT22;51813;40.666;16.602;2022-12-10T05:01:22;17.40;68.30
65231;DHT22;51813;40.666;16.602;2022-12-10T05:03:48;17.30;68.30
65231;DHT22;51813;40.666;16.602;2022-12-10T05:06:15;17.30;68.30
65231;DHT22;51813;40.666;16.602;2022-12-10T05:08:43;17.30;68.30
65231;DHT22;51813;40.666;16.602;2022-12-10T05:11:17;17.40;68.30
65231;DHT22;51813;40.666;16.602;2022-12-10T05:13:43;17.30;68.30
65231;DHT22;51813;40.666;16.602;2022-12-10T05:16:10;17.30;68.30
65231;DHT22;51813;40.666;16.602;2022-12-10T05:18:36;17.30;68.30
65231;DHT22;51813;40.666;16.602;2022-12-10T05:21:06;17.30;68.30
65231;DHT22;51813;40.666;16.602;2022-12-10T05:23:33;17.30;68.40
65231;DHT22;51813;40.666;16.602;2022-12-10T05:26:08;17.30;68.30
65231;DHT22;51813;40.666;16.602;2022-12-10T05:28:43;17.30;68.30
65231;DHT22;51813;40.666;16.602;2022-12-10T05:31:14;17.30;68.40
65231;DHT22;51813;40.666;16.602;2022-12-10T05:33:41;17.30;68.40
65231;DHT22;51813;40.666;16.602;2022-12-10T05:36:07;17.30;68.40
65231;DHT22;51813;40.666;16.602;2022-12-10T05:38:33;17.30;68.40
65231;DHT22;51813;40.666;16.602;2022-12-10T05:41:03;17.30;68.30
65231;DHT22;51813;40.666;16.602;2022-12-10T05:43:29;17.30;68.30
65231;DHT22;51813;40.666;16.602;2022-12-10T05:45:59;17.30;68.30
65231;DHT22;51813;40.666;16.602;2022-12-10T05:48:25;17.30;68.30
65231;DHT22;51813;40.666;16.602;2022-12-10T05:50:51;17.30;68.40
65231;DHT22;51813;40.666;16.602;2022-12-10T05:53:17;17.30;68.40
65231;DHT22;51813;40.666;16.602;2022-12-10T05:55:43;17.30;68.30
65231;DHT22;51813;40.666;16.602;2022-12-10T05:58:10;17.30;68.30
65231;DHT22;51813;40.666;16.602;2022-12-10T06:00:39;17.30;68.30
65231;DHT22;51813;40.666;16.602;2022-12-10T06:03:05;17.30;68.30
65231;DHT22;51813;40.666;16.602;2022-12-10T06:05:39;17.30;68.30
65231;DHT22;51813;40.666;16.602;2022-12-10T06:08:06;17.30;68.30
65231;DHT22;51813;40.666;16.602;2022-12-10T06:10:34;17.30;68.40
65231;DHT22;51813;40.666;16.602;2022-12-10T06:13:00;17.30;68.30
65231;DHT22;51813;40.666;16.602;2022-12-10T06:15:26;17.30;68.30
65231;DHT22;51813;40.666;16.602;2022-12-10T06:17:53;17.30;68.30
65231;DHT22;51813;40.666;16.602;2022-12-10T06:20:19;17.30;68.30
65231;DHT22;51813;40.666;16.602;2022-12-10T06:22:44;17.30;68.30
65231;DHT22;51813;40.666;16.602;2022-12-10T06:25:10;17.30;68.30
65231;DHT22;51813;40.666;16.602;2022-12-10T06:27:36;17.30;68.40
65231;DHT22;51813;40.666;16.602;2022-12-10T06:30:02;17.30;68.40
65231;DHT22;51813;40.666;16.602;2022-12-10T06:32:28;17.30;68.30
65231;DHT22;51813;40.666;16.602;2022-12-10T06:34:54;17.30;68.40
65231;DHT22;51813;40.666;16.602;2022-12-10T06:37:20;17.30;68.40
65231;DHT22;51813;40.666;16.602;2022-12-10T06:39:45;17.30;68.50
65231;DHT22;51813;40.666;16.602;2022-12-10T06:42:11;17.30;68.50
65231;DHT22;51813;40.666;16.602;2022-12-10T06:44:36;17.30;68.50
65231;DHT22;51813;40.666;16.602;2022-12-10T06:47:02;17.30;68.50
65231;DHT22;51813;40.666;16.602;2022-12-10T06:49:28;17.30;68.50
65231;DHT22;51813;40.666;16.602;2022-12-10T06:51:53;17.30;68.50
65231;DHT22;51813;40.666;16.602;2022-12-10T06:54:19;17.30;68.50
65231;DHT22;51813;40.666;16.602;2022-12-10T06:56:45;17.30;68.50
65231;DHT22;51813;40.666;16.602;2022-12-10T06:59:10;17.30;68.50
65231;DHT22;51813;40.666;16.602;2022-12-10T07:01:37;17.30;68.50
65231;DHT22;51813;40.666;16.602;2022-12-10T07:04:03;17.30;68.50
65231;DHT22;51813;40.666;16.602;2022-12-10T07:06:30;17.30;68.50
65231;DHT22;51813;40.666;16.602;2022-12-10T07:08:56;17.30;68.60
65231;DHT22;51813;40.666;16.602;2022-12-10T07:11:23;17.30;68.50
65231;DHT22;51813;40.666;16.602;2022-12-10T07:13:50;17.30;68.50
65231;DHT22;51813;40.666;16.602;2022-12-10T07:16:26;17.30;68.50
65231;DHT22;51813;40.666;16.602;2022-12-10T07:18:54;17.30;68.50
65231;DHT22;51813;40.666;16.602;2022-12-10T07:23:46;17.30;68.60
65231;DHT22;51813;40.666;16.602;2022-12-10T07:26:12;17.30;68.50
65231;DHT22;51813;40.666;16.602;2022-12-10T07:28:38;17.30;68.50
65231;DHT22;51813;40.666;16.602;2022-12-10T07:31:05;17.30;68.40
65231;DHT22;51813;40.666;16.602;2022-12-10T07:33:31;17.30;68.50
65231;DHT22;51813;40.666;16.602;2022-12-10T07:35:57;17.30;68.60
65231;DHT22;51813;40.666;16.602;2022-12-10T07:38:23;17.30;68.70
65231;DHT22;51813;40.666;16.602;2022-12-10T07:40:49;17.30;68.70
65231;DHT22;51813;40.666;16.602;2022-12-10T07:43:15;17.30;68.70
65231;DHT22;51813;40.666;16.602;2022-12-10T07:45:41;17.30;68.70
65231;DHT22;51813;40.666;16.602;2022-12-10T07:48:07;17.30;68.80
65231;DHT22;51813;40.666;16.602;2022-12-10T07:50:32;17.30;68.70
65231;DHT22;51813;40.666;16.602;2022-12-10T07:52:58;17.30;69.40
65231;DHT22;51813;40.666;16.602;2022-12-10T07:55:24;17.30;68.70
65231;DHT22;51813;40.666;16.602;2022-12-10T07:57:50;17.30;68.70
65231;DHT22;51813;40.666;16.602;2022-12-10T08:00:16;17.30;68.80
65231;DHT22;51813;40.666;16.602;2022-12-10T08:02:41;17.30;68.80
65231;DHT22;51813;40.666;16.602;2022-12-10T08:05:07;17.30;68.80
65231;DHT22;51813;40.666;16.602;2022-12-10T08:07:33;17.30;68.80
65231;DHT22;51813;40.666;16.602;2022-12-10T08:09:59;17.30;68.80
65231;DHT22;51813;40.666;16.602;2022-12-10T08:12:25;17.30;68.90
65231;DHT22;51813;40.666;16.602;2022-12-10T08:14:50;17.30;68.90
65231;DHT22;51813;40.666;16.602;2022-12-10T08:17:16;17.30;68.80
65231;DHT22;51813;40.666;16.602;2022-12-10T08:19:42;17.30;68.80
65231;DHT22;51813;40.666;16.602;2022-12-10T08:22:08;17.30;68.90
65231;DHT22;51813;40.666;16.602;2022-12-10T08:24:33;17.30;69.00
65231;DHT22;51813;40.666;16.602;2022-12-10T08:26:59;17.30;69.00
65231;DHT22;51813;40.666;16.602;2022-12-10T08:29:24;17.30;68.90
65231;DHT22;51813;40.666;16.602;2022-12-10T08:31:50;17.30;69.00
65231;DHT22;51813;40.666;16.602;2022-12-10T08:34:17;17.30;69.70
65231;DHT22;51813;40.666;16.602;2022-12-10T08:36:44;17.30;69.00
65231;DHT22;51813;40.666;16.602;2022-12-10T08:39:10;17.30;68.90
65231;DHT22;51813;40.666;16.602;2022-12-10T08:41:41;17.30;69.00
65231;DHT22;51813;40.666;16.602;2022-12-10T08:44:07;17.40;70.70
65231;DHT22;51813;40.666;16.602;2022-12-10T08:46:32;17.50;70.70
65231;DHT22;51813;40.666;16.602;2022-12-10T08:48:58;17.50;69.40
65231;DHT22;51813;40.666;16.602;2022-12-10T08:51:25;17.60;69.60
65231;DHT22;51813;40.666;16.602;2022-12-10T08:53:50;17.60;69.40
65231;DHT22;51813;40.666;16.602;2022-12-10T08:56:16;17.70;69.50
65231;DHT22;51813;40.666;16.602;2022-12-10T08:58:42;17.80;69.90
65231;DHT22;51813;40.666;16.602;2022-12-10T09:01:09;17.80;69.90
65231;DHT22;51813;40.666;16.602;2022-12-10T09:03:36;17.80;69.40
65231;DHT22;51813;40.666;16.602;2022-12-10T09:06:07;17.90;69.60
65231;DHT22;51813;40.666;16.602;2022-12-10T09:08:33;17.90;69.80
65231;DHT22;51813;40.666;16.602;2022-12-10T09:11:08;17.90;69.40
65231;DHT22;51813;40.666;16.602;2022-12-10T09:13:35;18.00;69.70
65231;DHT22;51813;40.666;16.602;2022-12-10T09:16:00;18.00;69.60
65231;DHT22;51813;40.666;16.602;2022-12-10T09:18:26;18.00;69.60
65231;DHT22;51813;40.666;16.602;2022-12-10T09:20:52;18.00;69.40
65231;DHT22;51813;40.666;16.602;2022-12-10T09:23:17;18.00;69.50
65231;DHT22;51813;40.666;16.602;2022-12-10T09:25:43;18.00;68.90
65231;DHT22;51813;40.666;16.602;2022-12-10T09:28:09;18.10;68.50
65231;DHT22;51813;40.666;16.602;2022-12-10T09:30:35;18.10;68.30
65231;DHT22;51813;40.666;16.602;2022-12-10T09:33:00;18.10;68.30
65231;DHT22;51813;40.666;16.602;2022-12-10T09:35:26;18.20;68.10
65231;DHT22;51813;40.666;16.602;2022-12-10T09:37:53;18.20;68.00
65231;DHT22;51813;40.666;16.602;2022-12-10T09:43:25;18.20;67.90
65231;DHT22;51813;40.666;16.602;2022-12-10T09:51:24;18.20;68.90
65231;DHT22;51813;40.666;16.602;2022-12-10T09:53:53;18.10;69.30
65231;DHT22;51813;40.666;16.602;2022-12-10T09:56:31;18.10;69.60
65231;DHT22;51813;40.666;16.602;2022-12-10T09:59:01;18.10;70.00
65231;DHT22;51813;40.666;16.602;2022-12-10T10:01:30;18.00;69.90
65231;DHT22;51813;40.666;16.602;2022-12-10T10:03:56;18.10;70.10
65231;DHT22;51813;40.666;16.602;2022-12-10T10:06:24;18.10;70.10
65231;DHT22;51813;40.666;16.602;2022-12-10T10:08:53;18.10;70.00
65231;DHT22;51813;40.666;16.602;2022-12-10T10:11:24;18.10;70.00
65231;DHT22;51813;40.666;16.602;2022-12-10T10:13:57;18.10;70.10
65231;DHT22;51813;40.666;16.602;2022-12-10T10:16:36;18.10;70.30
65231;DHT22;51813;40.666;16.602;2022-12-10T10:19:03;18.10;70.50
65231;DHT22;51813;40.666;16.602;2022-12-10T10:21:35;18.10;70.40
65231;DHT22;51813;40.666;16.602;2022-12-10T10:24:02;18.10;70.20
65231;DHT22;51813;40.666;16.602;2022-12-10T10:26:29;18.10;70.00
65231;DHT22;51813;40.666;16.602;2022-12-10T10:29:05;18.20;69.80
65231;DHT22;51813;40.666;16.602;2022-12-10T10:31:33;18.20;69.50
65231;DHT22;51813;40.666;16.602;2022-12-10T10:34:04;18.20;69.30
65231;DHT22;51813;40.666;16.602;2022-12-10T10:39:11;18.20;68.90
65231;DHT22;51813;40.666;16.602;2022-12-10T10:41:52;18.20;68.80
65231;DHT22;51813;40.666;16.602;2022-12-10T10:44:24;18.20;68.70
65231;DHT22;51813;40.666;16.602;2022-12-10T10:46:53;18.20;68.60
65231;DHT22;51813;40.666;16.602;2022-12-10T10:49:32;18.20;68.70
65231;DHT22;51813;40.666;16.602;2022-12-10T10:52:15;18.20;68.60
65231;DHT22;51813;40.666;16.602;2022-12-10T10:54:43;18.20;68.60
65231;DHT22;51813;40.666;16.602;2022-12-10T10:57:23;18.20;68.60
65231;DHT22;51813;40.666;16.602;2022-12-10T10:59:51;18.20;68.70
65231;DHT22;51813;40.666;16.602;2022-12-10T11:02:26;18.10;68.60
65231;DHT22;51813;40.666;16.602;2022-12-10T11:04:55;18.20;68.60
65231;DHT22;51813;40.666;16.602;2022-12-10T11:07:34;18.20;69.70
65231;DHT22;51813;40.666;16.602;2022-12-10T11:10:02;18.20;69.70
65231;DHT22;51813;40.666;16.602;2022-12-10T11:12:38;18.20;69.80
65231;DHT22;51813;40.666;16.602;2022-12-10T11:17:57;18.30;69.90
65231;DHT22;51813;40.666;16.602;2022-12-10T11:20:29;18.30;69.80
65231;DHT22;51813;40.666;16.602;2022-12-10T11:23:01;18.30;70.00
65231;DHT22;51813;40.666;16.602;2022-12-10T11:25:44;18.30;70.10
65231;DHT22;51813;40.666;16.602;2022-12-10T11:31:16;18.30;70.10
65231;DHT22;51813;40.666;16.602;2022-12-10T11:36:48;18.40;70.60
65231;DHT22;51813;40.666;16.602;2022-12-10T11:39:40;18.40;70.50
65231;DHT22;51813;40.666;16.602;2022-12-10T11:50:36;18.50;69.90
65231;DHT22;51813;40.666;16.602;2022-12-10T12:09:23;18.40;69.50
65231;DHT22;51813;40.666;16.602;2022-12-10T12:14:55;18.40;69.20
65231;DHT22;51813;40.666;16.602;2022-12-10T12:17:34;18.50;69.10
65231;DHT22;51813;40.666;16.602;2022-12-10T12:22:53;18.50;68.90
65231;DHT22;51813;40.666;16.602;2022-12-10T12:25:32;18.40;69.20
65231;DHT22;51813;40.666;16.602;2022-12-10T12:28:20;18.50;69.20
65231;DHT22;51813;40.666;16.602;2022-12-10T12:30:51;18.40;69.00
65231;DHT22;51813;40.666;16.602;2022-12-10T12:33:30;18.40;69.40
65231;DHT22;51813;40.666;16.602;2022-12-10T12:36:11;18.40;69.20
65231;DHT22;51813;40.666;16.602;2022-12-10T12:38:43;18.40;69.00
65231;DHT22;51813;40.666;16.602;2022-12-10T12:41:16;18.40;68.90
65231;DHT22;51813;40.666;16.602;2022-12-10T12:43:52;18.30;68.90
65231;DHT22;51813;40.666;16.602;2022-12-10T12:46:41;18.30;68.90
65231;DHT22;51813;40.666;16.602;2022-12-10T12:49:24;18.30;68.80
65231;DHT22;51813;40.666;16.602;2022-12-10T12:52:16;18.30;68.90
65231;DHT22;51813;40.666;16.602;2022-12-10T12:54:44;18.30;68.80
65231;DHT22;51813;40.666;16.602;2022-12-10T13:00:10;18.30;68.90
65231;DHT22;51813;40.666;16.602;2022-12-10T13:05:44;18.20;68.80
65231;DHT22;51813;40.666;16.602;2022-12-10T13:13:39;18.20;68.80
65231;DHT22;51813;40.666;16.602;2022-12-10T13:24:46;18.20;68.70
65231;DHT22;51813;40.666;16.602;2022-12-10T13:27:23;18.20;68.80
65231;DHT22;51813;40.666;16.602;2022-12-10T13:40:36;18.20;68.90
65231;DHT22;51813;40.666;16.602;2022-12-10T13:48:55;18.20;68.80
65231;DHT22;51813;40.666;16.602;2022-12-10T13:51:36;18.20;68.80
65231;DHT22;51813;40.666;16.602;2022-12-10T13:54:26;18.20;68.80
65231;DHT22;51813;40.666;16.602;2022-12-10T13:57:15;18.20;68.80
65231;DHT22;51813;40.666;16.602;2022-12-10T14:08:32;18.20;68.80
65231;DHT22;51813;40.666;16.602;2022-12-10T14:11:05;18.20;68.80
65231;DHT22;51813;40.666;16.602;2022-12-10T14:13:44;18.20;68.80
65231;DHT22;51813;40.666;16.602;2022-12-10T14:16:14;18.10;68.80
65231;DHT22;51813;40.666;16.602;2022-12-10T14:18:46;18.10;68.80
65231;DHT22;51813;40.666;16.602;2022-12-10T14:21:17;18.20;68.90
65231;DHT22;51813;40.666;16.602;2022-12-10T14:23:45;18.20;68.90
65231;DHT22;51813;40.666;16.602;2022-12-10T14:26:17;18.10;68.80
65231;DHT22;51813;40.666;16.602;2022-12-10T14:29:19;18.10;68.90
65231;DHT22;51813;40.666;16.602;2022-12-10T14:31:41;18.10;68.90
65231;DHT22;51813;40.666;16.602;2022-12-10T14:34:14;18.10;69.00
65231;DHT22;51813;40.666;16.602;2022-12-10T14:36:49;18.10;68.90
65231;DHT22;51813;40.666;16.602;2022-12-10T14:39:21;18.10;68.90
65231;DHT22;51813;40.666;16.602;2022-12-10T14:41:51;18.10;68.90
65231;DHT22;51813;40.666;16.602;2022-12-10T14:44:19;18.20;68.90
65231;DHT22;51813;40.666;16.602;2022-12-10T14:46:47;18.10;68.90
65231;DHT22;51813;40.666;16.602;2022-12-10T14:49:20;18.10;69.00
65231;DHT22;51813;40.666;16.602;2022-12-10T14:51:47;18.10;69.60
65231;DHT22;51813;40.666;16.602;2022-12-10T14:54:34;18.10;69.10
65231;DHT22;51813;40.666;16.602;2022-12-10T14:57:04;18.10;69.30
65231;DHT22;51813;40.666;16.602;2022-12-10T14:59:40;18.20;69.30
65231;DHT22;51813;40.666;16.602;2022-12-10T15:02:34;18.20;69.50
65231;DHT22;51813;40.666;16.602;2022-12-10T15:05:02;18.20;69.30
65231;DHT22;51813;40.666;16.602;2022-12-10T15:07:33;18.20;69.40
65231;DHT22;51813;40.666;16.602;2022-12-10T15:10:06;18.20;69.50
65231;DHT22;51813;40.666;16.602;2022-12-10T15:12:38;18.20;70.50
65231;DHT22;51813;40.666;16.602;2022-12-10T15:17:59;18.30;70.40
65231;DHT22;51813;40.666;16.602;2022-12-10T15:20:32;18.30;70.10
65231;DHT22;51813;40.666;16.602;2022-12-10T15:23:22;18.40;71.40
65231;DHT22;51813;40.666;16.602;2022-12-10T15:28:40;18.50;71.50
65231;DHT22;51813;40.666;16.602;2022-12-10T15:31:10;18.50;72.10
65231;DHT22;51813;40.666;16.602;2022-12-10T15:33:42;18.50;71.60
65231;DHT22;51813;40.666;16.602;2022-12-10T15:36:59;18.60;71.60
65231;DHT22;51813;40.666;16.602;2022-12-10T15:41:52;18.70;72.60
65231;DHT22;51813;40.666;16.602;2022-12-10T15:44:26;18.70;71.50
65231;DHT22;51813;40.666;16.602;2022-12-10T15:49:58;18.70;72.30
65231;DHT22;51813;40.666;16.602;2022-12-10T15:52:29;18.70;72.00
65231;DHT22;51813;40.666;16.602;2022-12-10T15:54:56;18.80;71.60
65231;DHT22;51813;40.666;16.602;2022-12-10T15:57:24;18.80;71.20
65231;DHT22;51813;40.666;16.602;2022-12-10T15:59:52;18.90;70.70
65231;DHT22;51813;40.666;16.602;2022-12-10T16:05:15;18.90;70.20
65231;DHT22;51813;40.666;16.602;2022-12-10T16:07:42;19.00;70.90
65231;DHT22;51813;40.666;16.602;2022-12-10T16:10:10;19.00;70.70
65231;DHT22;51813;40.666;16.602;2022-12-10T16:12:37;19.00;69.80
65231;DHT22;51813;40.666;16.602;2022-12-10T16:15:04;19.00;69.90
65231;DHT22;51813;40.666;16.602;2022-12-10T16:17:31;19.10;69.60
65231;DHT22;51813;40.666;16.602;2022-12-10T16:20:15;19.10;69.80
65231;DHT22;51813;40.666;16.602;2022-12-10T16:22:42;19.10;70.00
65231;DHT22;51813;40.666;16.602;2022-12-10T16:25:08;19.00;69.40
65231;DHT22;51813;40.666;16.602;2022-12-10T16:27:34;19.00;69.30
65231;DHT22;51813;40.666;16.602;2022-12-10T16:30:26;19.00;69.30
65231;DHT22;51813;40.666;16.602;2022-12-10T16:32:54;19.00;69.40
65231;DHT22;51813;40.666;16.602;2022-12-10T16:35:21;19.10;69.80
65231;DHT22;51813;40.666;16.602;2022-12-10T16:37:48;19.10;68.90
65231;DHT22;51813;40.666;16.602;2022-12-10T16:40:21;19.00;68.90
65231;DHT22;51813;40.666;16.602;2022-12-10T16:42:47;18.90;68.70
65231;DHT22;51813;40.666;16.602;2022-12-10T16:45:26;19.00;68.70
65231;DHT22;51813;40.666;16.602;2022-12-10T16:47:52;18.90;68.60
65231;DHT22;51813;40.666;16.602;2022-12-10T16:50:19;19.00;68.60
65231;DHT22;51813;40.666;16.602;2022-12-10T16:52:45;19.00;68.50
65231;DHT22;51813;40.666;16.602;2022-12-10T16:55:15;18.90;68.40
65231;DHT22;51813;40.666;16.602;2022-12-10T16:57:41;19.00;68.30
65231;DHT22;51813;40.666;16.602;2022-12-10T17:00:09;19.00;68.10
65231;DHT22;51813;40.666;16.602;2022-12-10T17:02:35;19.00;68.10
65231;DHT22;51813;40.666;16.602;2022-12-10T17:05:01;19.00;68.10
65231;DHT22;51813;40.666;16.602;2022-12-10T17:07:26;19.00;68.00
65231;DHT22;51813;40.666;16.602;2022-12-10T17:09:52;19.00;68.10
65231;DHT22;51813;40.666;16.602;2022-12-10T17:12:18;19.00;68.70
65231;DHT22;51813;40.666;16.602;2022-12-10T17:14:44;19.00;68.90
65231;DHT22;51813;40.666;16.602;2022-12-10T17:17:16;19.10;68.80
65231;DHT22;51813;40.666;16.602;2022-12-10T17:19:42;19.00;68.70
65231;DHT22;51813;40.666;16.602;2022-12-10T17:22:09;19.00;68.90
65231;DHT22;51813;40.666;16.602;2022-12-10T17:24:35;18.90;68.70
65231;DHT22;51813;40.666;16.602;2022-12-10T17:27:16;18.80;68.30
65231;DHT22;51813;40.666;16.602;2022-12-10T17:29:43;18.70;68.40
65231;DHT22;51813;40.666;16.602;2022-12-10T17:32:20;18.60;68.80
65231;DHT22;51813;40.666;16.602;2022-12-10T17:34:45;18.60;68.60
65231;DHT22;51813;40.666;16.602;2022-12-10T17:37:15;18.60;68.50
65231;DHT22;51813;40.666;16.602;2022-12-10T17:39:41;18.50;68.60
65231;DHT22;51813;40.666;16.602;2022-12-10T17:42:07;18.50;68.80
65231;DHT22;51813;40.666;16.602;2022-12-10T17:44:34;18.40;68.80
65231;DHT22;51813;40.666;16.602;2022-12-10T17:47:00;18.40;69.00
65231;DHT22;51813;40.666;16.602;2022-12-10T17:49:27;18.40;69.10